Time;durP1;ratioP1;P1;durP2;ratioP2;P2;SDS_P1;SDS_P2;PMS_P1;PMS_P2;Temp;Humidity;BMP_temperature;BMP_pressure;BME280_temperature;BME280_humidity;BME280_pressure;Samples;Min_cycle;Max_cycle;Signal;HPM_P1;HPM_P2
2023/09/25 00:01:52;;;;;;;3.35;1.95;;;;;;;;;;5079745;28;20079;-87
2023/09/25 00:04:23;;;;;;;2.85;1.67;;;;;;;;;;5080738;28;20416;-87
2023/09/25 00:06:54;;;;;;;3.63;1.90;;;;;;;;;;5081437;28;20048;-86
2023/09/25 00:09:21;;;;;;;3.38;2.00;;;;;;;;;;5083276;28;20068;-87
2023/09/25 00:12:03;;;;;;;3.78;2.10;;;;;;;;;;5096091;28;20058;-87
2023/09/25 00:14:38;;;;;;;3.15;2.10;;;;;;;;;;5089742;28;20076;-87
2023/09/25 00:17:09;;;;;;;4.13;2.05;;;;;;;;;;5086617;28;20048;-87
2023/09/25 00:19:38;;;;;;;4.68;1.90;;;;;;;;;;5087043;28;20064;-87
2023/09/25 00:22:18;;;;;;;4.82;2.25;;;;;;;;;;5086455;28;20060;-86
2023/09/25 00:25:15;;;;;;;2.13;1.88;;;;;;;;;;5088004;28;20059;-86
2023/09/25 00:27:45;;;;;;;3.75;1.75;;;;;;;;;;5087338;28;20068;-86
2023/09/25 00:33:36;;;;;;;2.95;1.55;;;;;;;;;;5088572;28;20594;-86
2023/09/25 00:36:05;;;;;;;2.70;2.08;;;;;;;;;;5086420;28;20044;-87
2023/09/25 00:38:59;;;;;;;4.32;1.77;;;;;;;;;;5091313;28;20062;-88
2023/09/25 00:41:43;;;;;;;2.20;1.80;;;;;;;;;;5094597;28;20037;-87
2023/09/25 00:44:30;;;;;;;4.93;2.10;;;;;;;;;;5096784;28;20025;-87
2023/09/25 00:47:12;;;;;;;2.50;2.20;;;;;;;;;;5090896;28;20069;-86
2023/09/25 00:49:41;;;;;;;5.13;2.40;;;;;;;;;;5088802;28;20048;-86
2023/09/25 00:52:14;;;;;;;2.58;1.75;;;;;;;;;;5089274;28;20056;-87
2023/09/25 00:54:55;;;;;;;3.55;1.88;;;;;;;;;;5088068;28;20173;-87
2023/09/25 00:57:25;;;;;;;3.78;2.28;;;;;;;;;;5088312;28;20377;-86
2023/09/25 00:59:55;;;;;;;3.55;2.40;;;;;;;;;;5089325;28;20041;-87
2023/09/25 01:02:23;;;;;;;4.50;2.45;;;;;;;;;;5091151;28;20064;-87
2023/09/25 01:05:08;;;;;;;3.35;2.22;;;;;;;;;;5072976;28;20063;-87
2023/09/25 01:07:40;;;;;;;3.45;2.40;;;;;;;;;;5087893;28;20128;-87
2023/09/25 01:10:16;;;;;;;3.97;2.50;;;;;;;;;;5083291;28;20052;-86
2023/09/25 01:12:46;;;;;;;6.75;2.40;;;;;;;;;;5083559;28;20250;-86
2023/09/25 01:15:14;;;;;;;5.03;2.67;;;;;;;;;;5083119;28;20059;-86
2023/09/25 01:17:42;;;;;;;5.65;3.00;;;;;;;;;;5084361;28;20048;-86
2023/09/25 01:20:13;;;;;;;4.53;2.25;;;;;;;;;;5086832;28;20120;-86
2023/09/25 01:22:41;;;;;;;2.58;2.13;;;;;;;;;;5086453;28;20048;-85
2023/09/25 01:25:13;;;;;;;3.50;2.63;;;;;;;;;;5086366;28;20054;-87
2023/09/25 01:27:47;;;;;;;4.80;2.70;;;;;;;;;;5088110;28;20439;-85
2023/09/25 01:30:15;;;;;;;2.55;2.30;;;;;;;;;;5103761;28;20082;-85
2023/09/25 01:32:44;;;;;;;3.50;2.40;;;;;;;;;;5104245;28;20031;-87
2023/09/25 01:35:18;;;;;;;4.65;2.70;;;;;;;;;;5090441;28;20048;-87
2023/09/25 01:37:47;;;;;;;2.80;2.30;;;;;;;;;;5101713;28;20040;-87
2023/09/25 01:40:21;;;;;;;4.65;2.42;;;;;;;;;;5086161;28;20101;-87
2023/09/25 01:42:48;;;;;;;5.13;2.40;;;;;;;;;;5085311;28;20032;-87
2023/09/25 01:45:19;;;;;;;6.63;3.60;;;;;;;;;;5085664;28;20048;-87
2023/09/25 01:47:50;;;;;;;6.65;2.45;;;;;;;;;;5086952;28;20059;-87
2023/09/25 01:50:21;;;;;;;6.47;2.90;;;;;;;;;;5090109;28;20055;-87
2023/09/25 01:52:51;;;;;;;8.70;3.40;;;;;;;;;;5093835;28;20055;-87
2023/09/25 01:55:19;;;;;;;4.15;2.50;;;;;;;;;;5094461;28;20049;-87
2023/09/25 01:57:47;;;;;;;3.65;2.58;;;;;;;;;;5096047;28;20048;-87
2023/09/25 02:00:18;;;;;;;3.13;2.83;;;;;;;;;;5095721;28;20047;-86
2023/09/25 02:02:46;;;;;;;4.90;2.67;;;;;;;;;;5089616;28;20058;-87
2023/09/25 02:05:18;;;;;;;6.22;2.40;;;;;;;;;;5088522;28;20433;-86
2023/09/25 02:07:45;;;;;;;7.43;2.97;;;;;;;;;;5086494;28;20074;-87
2023/09/25 02:10:13;;;;;;;5.07;2.78;;;;;;;;;;5103980;28;20155;-87
2023/09/25 02:12:40;;;;;;;3.65;2.90;;;;;;;;;;5104040;28;20044;-86
2023/09/25 02:15:08;;;;;;;5.90;2.85;;;;;;;;;;5087311;28;20454;-86
2023/09/25 02:17:36;;;;;;;4.05;2.40;;;;;;;;;;5103843;28;20066;-85
2023/09/25 02:20:16;;;;;;;3.70;2.58;;;;;;;;;;5082698;28;20080;-86
2023/09/25 02:22:49;;;;;;;9.35;3.40;;;;;;;;;;5085982;28;20060;-86
2023/09/25 02:25:32;;;;;;;3.58;2.50;;;;;;;;;;5079104;28;20046;-86
2023/09/25 02:27:59;;;;;;;3.58;2.60;;;;;;;;;;5082232;28;20064;-86
2023/09/25 02:30:27;;;;;;;4.07;2.72;;;;;;;;;;5081233;28;20441;-86
2023/09/25 02:32:54;;;;;;;6.50;2.85;;;;;;;;;;5088638;28;20049;-86
2023/09/25 02:35:22;;;;;;;4.78;2.40;;;;;;;;;;5086929;28;20045;-85
2023/09/25 02:37:49;;;;;;;3.97;2.78;;;;;;;;;;5079714;28;20063;-85
2023/09/25 02:40:24;;;;;;;4.80;2.40;;;;;;;;;;5079474;28;20052;-86
2023/09/25 02:43:00;;;;;;;4.18;2.47;;;;;;;;;;5080442;28;20048;-86
2023/09/25 02:45:29;;;;;;;2.75;2.50;;;;;;;;;;5080322;28;20059;-86
2023/09/25 02:48:05;;;;;;;3.00;2.38;;;;;;;;;;5085710;28;20059;-86
2023/09/25 02:50:46;;;;;;;4.85;2.75;;;;;;;;;;5085962;28;20051;-86
2023/09/25 02:53:18;;;;;;;3.67;2.60;;;;;;;;;;5087833;28;20044;-85
2023/09/25 02:55:49;;;;;;;2.35;2.10;;;;;;;;;;5091856;28;20239;-86
2023/09/25 02:58:17;;;;;;;6.40;2.40;;;;;;;;;;5091014;28;20114;-86
2023/09/25 03:00:47;;;;;;;3.70;2.20;;;;;;;;;;5090483;28;20119;-86
2023/09/25 03:03:14;;;;;;;2.55;2.35;;;;;;;;;;5086755;28;20440;-86
2023/09/25 03:05:47;;;;;;;10.82;2.38;;;;;;;;;;5086939;28;20106;-86
2023/09/25 03:08:16;;;;;;;6.68;2.20;;;;;;;;;;5086735;28;20067;-86
2023/09/25 03:10:44;;;;;;;6.03;2.45;;;;;;;;;;5088324;28;20053;-87
2023/09/25 03:13:12;;;;;;;3.03;2.22;;;;;;;;;;5086533;28;20112;-86
2023/09/25 03:15:41;;;;;;;8.18;2.45;;;;;;;;;;5086182;28;20072;-86
2023/09/25 03:18:18;;;;;;;3.90;2.33;;;;;;;;;;5089824;28;20103;-85
2023/09/25 03:20:49;;;;;;;5.65;2.42;;;;;;;;;;5108811;28;20087;-86
2023/09/25 03:23:18;;;;;;;4.03;2.13;;;;;;;;;;5108062;28;20143;-87
2023/09/25 03:25:46;;;;;;;2.67;2.33;;;;;;;;;;5105129;28;20063;-87
2023/09/25 03:28:17;;;;;;;4.32;2.45;;;;;;;;;;5088497;28;20104;-86
2023/09/25 03:30:48;;;;;;;3.83;2.40;;;;;;;;;;5089137;28;20040;-86
2023/09/25 03:33:28;;;;;;;2.10;1.90;;;;;;;;;;5086610;28;20044;-87
2023/09/25 03:35:59;;;;;;;3.58;2.33;;;;;;;;;;5086335;28;20048;-86
2023/09/25 03:38:29;;;;;;;2.67;2.40;;;;;;;;;;5086353;28;20371;-86
2023/09/25 03:40:56;;;;;;;3.63;2.45;;;;;;;;;;5088884;27;20036;-86
2023/09/25 03:43:23;;;;;;;3.25;2.47;;;;;;;;;;5092293;28;20107;-86
2023/09/25 03:45:54;;;;;;;2.45;2.15;;;;;;;;;;5087208;28;20190;-86
2023/09/25 03:48:30;;;;;;;5.47;2.45;;;;;;;;;;5086191;28;20051;-86
2023/09/25 03:50:59;;;;;;;5.93;2.70;;;;;;;;;;5086516;28;20080;-86
2023/09/25 03:53:30;;;;;;;4.72;2.15;;;;;;;;;;5104542;28;20055;-86
2023/09/25 03:56:22;;;;;;;3.72;2.30;;;;;;;;;;5099916;27;20048;-88
2023/09/25 03:59:06;;;;;;;4.37;2.10;;;;;;;;;;5214577;22;20078;-86
2023/09/25 04:01:34;;;;;;;2.92;2.17;;;;;;;;;;5084616;28;20063;-86
2023/09/25 04:04:06;;;;;;;2.92;2.53;;;;;;;;;;5084976;28;20051;-86
2023/09/25 04:06:34;;;;;;;3.20;2.55;;;;;;;;;;5083836;28;20324;-86
2023/09/25 04:09:01;;;;;;;6.13;2.15;;;;;;;;;;5084955;28;20052;-86
2023/09/25 04:11:31;;;;;;;5.70;2.42;;;;;;;;;;5086100;28;20044;-86
2023/09/25 04:14:00;;;;;;;2.65;2.40;;;;;;;;;;5103860;28;20048;-86
2023/09/25 04:16:35;;;;;;;5.43;2.65;;;;;;;;;;5096232;28;20032;-86
2023/09/25 04:19:04;;;;;;;3.38;2.55;;;;;;;;;;5085436;28;20051;-87
2023/09/25 04:21:32;;;;;;;5.05;2.60;;;;;;;;;;5084181;28;20054;-86
2023/09/25 04:24:10;;;;;;;4.28;2.67;;;;;;;;;;5083769;28;20151;-86
2023/09/25 04:26:49;;;;;;;5.75;2.50;;;;;;;;;;5081319;28;20048;-86
2023/09/25 04:29:51;;;;;;;6.70;3.45;;;;;;;;;;5085050;28;20458;-87
2023/09/25 04:32:27;;;;;;;2.90;2.38;;;;;;;;;;5097037;28;20058;-86
2023/09/25 04:34:56;;;;;;;6.15;2.60;;;;;;;;;;5081086;28;20058;-86
2023/09/25 04:37:26;;;;;;;2.25;2.05;;;;;;;;;;5081924;28;20143;-87
2023/09/25 04:39:54;;;;;;;5.80;2.40;;;;;;;;;;5097877;28;20179;-87
2023/09/25 04:42:26;;;;;;;3.25;2.65;;;;;;;;;;5079823;28;20483;-86
2023/09/25 04:44:56;;;;;;;6.95;2.28;;;;;;;;;;5080213;28;20052;-87
2023/09/25 04:47:25;;;;;;;3.92;2.53;;;;;;;;;;5079523;28;20078;-87
2023/09/25 04:49:56;;;;;;;3.25;2.42;;;;;;;;;;5079734;28;20346;-87
2023/09/25 04:52:24;;;;;;;3.17;2.35;;;;;;;;;;5079553;28;20064;-87
2023/09/25 04:54:54;;;;;;;5.30;2.58;;;;;;;;;;5079788;28;20044;-86
2023/09/25 04:57:21;;;;;;;6.78;2.80;;;;;;;;;;5098336;28;20052;-87
2023/09/25 04:59:50;;;;;;;3.65;2.42;;;;;;;;;;5080346;28;20083;-86
2023/09/25 05:02:26;;;;;;;3.83;2.35;;;;;;;;;;5082827;28;20416;-86
2023/09/25 05:04:56;;;;;;;4.63;2.60;;;;;;;;;;5098495;28;20048;-86
2023/09/25 05:07:25;;;;;;;4.15;3.15;;;;;;;;;;5079925;28;20047;-86
2023/09/25 05:09:52;;;;;;;3.00;2.38;;;;;;;;;;5080113;28;20052;-87
2023/09/25 05:12:24;;;;;;;7.70;2.88;;;;;;;;;;5083946;28;20098;-86
2023/09/25 05:14:53;;;;;;;5.45;2.75;;;;;;;;;;5075847;28;20039;-86
2023/09/25 05:17:21;;;;;;;3.05;2.55;;;;;;;;;;5090849;28;20048;-87
2023/09/25 05:19:53;;;;;;;5.20;2.58;;;;;;;;;;5090421;28;20097;-87
2023/09/25 05:22:24;;;;;;;4.78;3.17;;;;;;;;;;5071923;28;20040;-87
2023/09/25 05:24:52;;;;;;;4.07;2.90;;;;;;;;;;5071598;28;20359;-87
2023/09/25 05:27:32;;;;;;;5.13;2.53;;;;;;;;;;5070711;28;20293;-87
2023/09/25 05:30:00;;;;;;;4.00;2.92;;;;;;;;;;5069855;28;20063;-87
2023/09/25 05:32:27;;;;;;;3.63;2.25;;;;;;;;;;5067850;28;20048;-87
2023/09/25 05:34:54;;;;;;;3.42;2.70;;;;;;;;;;5071599;28;20312;-86
2023/09/25 05:37:22;;;;;;;3.20;2.55;;;;;;;;;;5080030;28;20044;-87
2023/09/25 05:39:50;;;;;;;5.95;2.67;;;;;;;;;;5068128;28;20120;-87
2023/09/25 05:42:19;;;;;;;3.85;2.97;;;;;;;;;;5068254;28;20048;-87
2023/09/25 05:44:49;;;;;;;3.35;2.67;;;;;;;;;;5069136;28;20499;-87
2023/09/25 05:47:20;;;;;;;5.40;2.50;;;;;;;;;;5069962;28;20056;-87
2023/09/25 05:49:47;;;;;;;2.72;2.15;;;;;;;;;;5068238;28;20062;-86
2023/09/25 05:52:14;;;;;;;4.60;3.08;;;;;;;;;;5069999;28;20101;-87
2023/09/25 05:54:49;;;;;;;4.28;2.45;;;;;;;;;;5089857;28;20032;-87
2023/09/25 05:57:18;;;;;;;3.60;2.42;;;;;;;;;;5079736;28;20369;-87
2023/09/25 05:59:46;;;;;;;4.35;2.83;;;;;;;;;;5091596;28;20245;-88
2023/09/25 15:28:40;;;;;;;4.68;1.70;;;;;;;;;;5095776;28;20108;-87
2023/09/25 15:31:26;;;;;;;3.22;1.92;;;;;;;;;;5082410;28;20058;-88
2023/09/25 15:33:53;;;;;;;2.47;1.23;;;;;;;;;;5079526;28;20105;-88
2023/09/25 15:36:22;;;;;;;3.03;1.60;;;;;;;;;;5072904;28;20161;-88
2023/09/25 15:38:55;;;;;;;2.47;1.10;;;;;;;;;;5076701;28;20052;-88
2023/09/25 15:41:23;;;;;;;3.28;1.10;;;;;;;;;;5075305;28;20166;-88
2023/09/25 15:43:53;;;;;;;3.22;1.42;;;;;;;;;;5070615;28;20044;-88
2023/09/25 15:46:26;;;;;;;3.80;1.13;;;;;;;;;;5077780;28;20044;-88
2023/09/25 15:48:57;;;;;;;2.20;1.10;;;;;;;;;;5080329;28;20060;-87
2023/09/25 15:51:25;;;;;;;2.38;1.20;;;;;;;;;;5077176;28;20076;-88
2023/09/25 15:53:59;;;;;;;5.00;1.38;;;;;;;;;;5072261;28;20147;-88
2023/09/25 15:56:27;;;;;;;3.15;1.20;;;;;;;;;;5073926;28;20104;-88
2023/09/25 16:09:10;;;;;;;2.60;1.92;;;;;;;;;;5113748;28;20296;-87
2023/09/25 16:11:40;;;;;;;5.80;4.22;;;;;;;;;;5089673;28;20441;-87
2023/09/25 16:14:11;;;;;;;2.47;1.27;;;;;;;;;;5091013;28;20121;-88
2023/09/25 16:16:42;;;;;;;2.58;1.25;;;;;;;;;;5091197;28;20096;-87
2023/09/25 16:19:09;;;;;;;2.08;1.23;;;;;;;;;;5110167;28;20128;-87
2023/09/25 16:21:40;;;;;;;2.25;1.33;;;;;;;;;;5093467;28;20078;-88
2023/09/25 16:37:56;;;;;;;1.50;1.00;;;;;;;;;;5836258;22;20031;-89
2023/09/25 16:40:48;;;;;;;3.85;1.23;;;;;;;;;;5120694;28;20050;-89
2023/09/25 16:43:28;;;;;;;3.72;1.33;;;;;;;;;;5123320;28;20058;-90
2023/09/25 16:45:58;;;;;;;3.72;1.63;;;;;;;;;;5121751;28;20200;-91
2023/09/25 16:48:28;;;;;;;3.35;1.52;;;;;;;;;;5103021;28;20070;-87
2023/09/25 16:50:58;;;;;;;26.30;19.98;;;;;;;;;;5099669;28;20048;-88
2023/09/25 16:53:32;;;;;;;21.60;16.95;;;;;;;;;;5115350;28;20242;-87
2023/09/25 16:56:05;;;;;;;9.23;7.88;;;;;;;;;;5098468;28;20058;-88
2023/09/25 16:58:41;;;;;;;5.63;2.72;;;;;;;;;;5095815;28;20071;-87
2023/09/25 17:01:22;;;;;;;4.50;2.20;;;;;;;;;;5093780;28;20453;-88
2023/09/25 17:12:02;;;;;;;4.57;1.48;;;;;;;;;;5068890;28;20098;-87
2023/09/25 17:14:31;;;;;;;3.70;1.20;;;;;;;;;;5056088;28;20116;-87
2023/09/25 17:17:04;;;;;;;2.78;1.20;;;;;;;;;;5056167;28;20101;-87
2023/09/25 17:19:33;;;;;;;3.13;1.27;;;;;;;;;;5052891;28;20063;-87
2023/09/25 17:22:04;;;;;;;4.32;1.52;;;;;;;;;;5052323;28;20052;-88
2023/09/25 17:24:43;;;;;;;1.90;1.08;;;;;;;;;;5051147;28;20044;-86
2023/09/25 17:27:16;;;;;;;13.10;4.78;;;;;;;;;;5052456;28;20058;-87
2023/09/25 17:29:46;;;;;;;6.68;3.35;;;;;;;;;;5051952;28;20324;-87
2023/09/25 17:32:14;;;;;;;4.70;1.80;;;;;;;;;;5051038;28;20420;-87
2023/09/25 17:34:50;;;;;;;9.30;3.35;;;;;;;;;;5051706;28;20049;-88
2023/09/25 17:37:33;;;;;;;6.15;2.97;;;;;;;;;;5053174;28;20074;-87
2023/09/25 17:40:11;;;;;;;5.43;1.88;;;;;;;;;;5051774;28;20476;-87
2023/09/25 17:42:50;;;;;;;3.63;1.77;;;;;;;;;;5056176;28;20059;-88
2023/09/25 17:45:24;;;;;;;4.45;1.90;;;;;;;;;;5057271;28;20301;-88
2023/09/25 17:47:55;;;;;;;3.40;2.30;;;;;;;;;;5055492;28;20105;-87
2023/09/25 17:50:24;;;;;;;5.43;3.95;;;;;;;;;;5063475;28;20360;-87
2023/09/25 17:52:53;;;;;;;4.43;2.10;;;;;;;;;;5065574;28;20037;-88
2023/09/25 17:55:40;;;;;;;3.80;1.63;;;;;;;;;;5082465;28;20044;-87
2023/09/25 17:58:23;;;;;;;6.47;1.83;;;;;;;;;;5064819;28;20063;-88
2023/09/25 18:00:58;;;;;;;5.95;2.05;;;;;;;;;;5068665;28;20236;-89
2023/09/25 18:03:28;;;;;;;9.57;3.47;;;;;;;;;;5081379;28;20227;-87
2023/09/25 18:06:00;;;;;;;5.82;3.10;;;;;;;;;;5063672;28;20056;-88
2023/09/25 18:08:36;;;;;;;5.57;2.47;;;;;;;;;;5063207;28;20250;-89
2023/09/25 18:11:20;;;;;;;9.00;2.55;;;;;;;;;;5065545;28;20056;-88
2023/09/25 18:13:50;;;;;;;7.50;4.07;;;;;;;;;;5082775;28;20107;-87
2023/09/25 18:16:19;;;;;;;5.65;2.22;;;;;;;;;;5061886;28;20067;-87
2023/09/25 18:18:55;;;;;;;4.72;2.20;;;;;;;;;;5062250;28;20113;-87
2023/09/25 18:21:45;;;;;;;4.65;3.00;;;;;;;;;;5061015;28;20052;-89
2023/09/25 18:24:17;;;;;;;4.57;2.55;;;;;;;;;;5062663;28;20269;-87
2023/09/25 18:26:55;;;;;;;7.20;2.20;;;;;;;;;;5061224;28;20137;-88
2023/09/25 18:29:38;;;;;;;4.22;1.80;;;;;;;;;;5063643;28;20415;-88
2023/09/25 18:32:12;;;;;;;11.38;1.92;;;;;;;;;;5064765;28;20052;-87
2023/09/25 18:34:49;;;;;;;8.30;2.70;;;;;;;;;;5080315;28;20128;-86
2023/09/25 18:37:37;;;;;;;7.65;2.28;;;;;;;;;;5063604;28;20272;-89
2023/09/25 18:40:18;;;;;;;4.03;2.20;;;;;;;;;;5062298;28;20244;-89
2023/09/25 18:42:55;;;;;;;5.47;2.47;;;;;;;;;;5077473;28;20048;-86
2023/09/25 18:45:30;;;;;;;4.85;2.38;;;;;;;;;;5063638;28;20179;-89
2023/09/25 18:48:00;;;;;;;6.10;2.20;;;;;;;;;;5067447;28;20371;-89
2023/09/25 18:50:41;;;;;;;5.60;2.67;;;;;;;;;;5064919;28;20048;-91
2023/09/25 18:53:16;;;;;;;3.63;2.30;;;;;;;;;;5061024;28;20056;-88
2023/09/25 18:56:05;;;;;;;2.90;1.80;;;;;;;;;;5060183;28;20612;-87
2023/09/25 18:58:41;;;;;;;4.70;2.45;;;;;;;;;;5060739;28;20098;-87
2023/09/25 19:01:09;;;;;;;3.90;2.05;;;;;;;;;;5061565;28;20114;-88
2023/09/25 19:03:47;;;;;;;6.38;2.40;;;;;;;;;;5062293;28;20055;-86
2023/09/25 19:06:19;;;;;;;7.63;2.37;;;;;;;;;;5058497;28;20221;-87
2023/09/25 19:08:56;;;;;;;6.20;2.42;;;;;;;;;;5060561;28;20397;-86
2023/09/25 19:11:28;;;;;;;4.38;2.70;;;;;;;;;;5057154;28;20060;-89
2023/09/25 19:14:01;;;;;;;5.63;2.17;;;;;;;;;;5059188;28;20301;-87
2023/09/25 19:16:32;;;;;;;3.95;2.30;;;;;;;;;;5060348;28;20098;-88
2023/09/25 19:19:02;;;;;;;6.57;2.17;;;;;;;;;;5059166;28;20293;-88
2023/09/25 19:21:33;;;;;;;5.75;2.20;;;;;;;;;;5078469;28;20109;-87
2023/09/25 19:24:14;;;;;;;3.30;2.35;;;;;;;;;;5060424;28;20048;-88
2023/09/25 19:26:46;;;;;;;;;;;;;;;;;;5064104;28;20045;-87
2023/09/25 19:29:28;;;;;;;6.05;2.35;;;;;;;;;;5063947;28;19920;-87
2023/09/25 19:32:11;;;;;;;4.88;2.38;;;;;;;;;;5063811;28;20075;-87
2023/09/25 19:34:52;;;;;;;3.40;2.00;;;;;;;;;;5069575;28;20524;-88
2023/09/25 19:37:24;;;;;;;5.72;2.53;;;;;;;;;;5070987;28;20069;-88
2023/09/25 19:39:53;;;;;;;3.45;2.20;;;;;;;;;;5066919;28;20059;-87
2023/09/25 19:42:23;;;;;;;8.65;2.67;;;;;;;;;;5082524;28;20048;-87
2023/09/25 19:44:57;;;;;;;4.18;2.28;;;;;;;;;;5065679;28;20052;-87
2023/09/25 19:47:45;;;;;;;13.80;6.57;;;;;;;;;;5070995;28;20060;-87
2023/09/25 19:50:15;;;;;;;8.85;5.05;;;;;;;;;;5065376;28;20116;-87
2023/09/25 19:52:43;;;;;;;6.53;3.60;;;;;;;;;;5084232;28;20049;-87
2023/09/25 19:55:36;;;;;;;8.05;3.10;;;;;;;;;;5065888;28;20045;-87
2023/09/25 19:58:11;;;;;;;5.57;2.65;;;;;;;;;;5084529;28;20048;-87
2023/09/25 20:00:47;;;;;;;;;;;;;;;;;;5069920;28;20032;-86
2023/09/25 20:03:51;;;;;;;7.03;3.00;;;;;;;;;;5072378;28;19966;-87
2023/09/25 20:06:33;;;;;;;5.80;2.95;;;;;;;;;;5067423;28;20065;-87
2023/09/25 20:09:01;;;;;;;7.25;2.70;;;;;;;;;;5071398;28;20117;-88
2023/09/25 20:11:41;;;;;;;12.05;3.53;;;;;;;;;;5070407;28;20161;-88
2023/09/25 20:14:37;;;;;;;8.23;3.00;;;;;;;;;;5070405;28;20102;-87
2023/09/25 20:17:10;;;;;;;6.10;2.78;;;;;;;;;;5067853;28;20071;-87
2023/09/25 20:19:42;;;;;;;5.30;2.20;;;;;;;;;;5065165;28;20152;-86
2023/09/25 20:22:10;;;;;;;4.93;2.80;;;;;;;;;;5067067;28;20048;-87
2023/09/25 20:24:38;;;;;;;7.60;3.00;;;;;;;;;;5081419;28;20138;-87
2023/09/25 20:27:06;;;;;;;5.22;2.67;;;;;;;;;;5064668;28;20381;-87
2023/09/25 20:29:37;;;;;;;5.50;2.90;;;;;;;;;;5063101;28;20063;-87
2023/09/25 20:32:05;;;;;;;4.97;2.70;;;;;;;;;;5081419;28;20148;-87
2023/09/25 20:34:33;;;;;;;5.07;2.55;;;;;;;;;;5064155;28;20048;-87
2023/09/25 20:37:06;;;;;;;8.38;3.25;;;;;;;;;;5065020;28;20091;-86
2023/09/25 20:39:43;;;;;;;9.10;3.95;;;;;;;;;;5080971;28;20263;-86
2023/09/25 20:42:15;;;;;;;9.63;4.13;;;;;;;;;;5084678;28;20036;-87
2023/09/25 20:44:43;;;;;;;12.40;5.15;;;;;;;;;;5067600;28;20045;-87
2023/09/25 20:47:23;;;;;;;6.32;3.53;;;;;;;;;;5064700;28;20079;-86
2023/09/25 20:49:59;;;;;;;5.68;3.60;;;;;;;;;;5064040;28;20212;-86
2023/09/25 20:52:30;;;;;;;5.65;3.17;;;;;;;;;;5062190;28;20064;-87
2023/09/25 20:54:58;;;;;;;6.63;3.47;;;;;;;;;;5063162;28;20094;-87
2023/09/25 20:57:25;;;;;;;7.72;4.25;;;;;;;;;;5064251;28;20231;-86
2023/09/25 20:59:53;;;;;;;7.25;3.92;;;;;;;;;;5061872;28;20153;-87
2023/09/25 21:02:21;;;;;;;7.55;4.07;;;;;;;;;;5060986;28;20497;-87
2023/09/25 21:04:49;;;;;;;8.38;4.18;;;;;;;;;;5062145;28;20049;-87
2023/09/25 21:07:20;;;;;;;6.47;3.53;;;;;;;;;;5062231;28;20048;-87
2023/09/25 21:09:48;;;;;;;9.80;4.63;;;;;;;;;;5060854;28;20048;-87
2023/09/25 21:12:18;;;;;;;5.38;2.92;;;;;;;;;;5060751;28;20332;-87
2023/09/25 21:14:47;;;;;;;4.95;3.25;;;;;;;;;;5062374;28;20055;-86
2023/09/25 21:17:14;;;;;;;6.32;3.58;;;;;;;;;;5060316;28;20048;-86
2023/09/25 21:19:44;;;;;;;7.10;3.63;;;;;;;;;;5062741;28;20053;-86
2023/09/25 21:22:14;;;;;;;7.45;4.18;;;;;;;;;;5062448;28;20048;-86
2023/09/25 21:24:45;;;;;;;9.63;3.75;;;;;;;;;;5061671;28;20076;-86
2023/09/25 21:27:20;;;;;;;4.45;3.05;;;;;;;;;;5078425;28;20083;-86
2023/09/25 21:29:49;;;;;;;8.82;3.10;;;;;;;;;;5077740;28;20083;-87
2023/09/25 21:32:20;;;;;;;8.65;3.20;;;;;;;;;;5062558;28;20084;-87
2023/09/25 21:34:48;;;;;;;7.50;2.78;;;;;;;;;;5062281;28;20048;-86
2023/09/25 21:37:25;;;;;;;6.13;3.47;;;;;;;;;;5062386;28;20063;-86
2023/09/25 21:39:57;;;;;;;7.68;3.03;;;;;;;;;;5064634;28;20314;-86
2023/09/25 21:42:25;;;;;;;5.70;3.10;;;;;;;;;;5064081;28;20056;-85
2023/09/25 21:44:55;;;;;;;6.93;3.53;;;;;;;;;;5063698;28;20408;-86
2023/09/25 21:47:25;;;;;;;5.75;3.75;;;;;;;;;;5081290;28;20055;-86
2023/09/25 21:49:54;;;;;;;6.38;3.58;;;;;;;;;;5064855;28;20150;-87
2023/09/25 21:52:21;;;;;;;6.10;3.75;;;;;;;;;;5062415;28;20083;-86
2023/09/25 21:54:50;;;;;;;10.10;3.85;;;;;;;;;;5064016;28;20114;-87
2023/09/25 21:57:19;;;;;;;7.43;3.80;;;;;;;;;;5064624;28;20083;-86
2023/09/25 21:59:56;;;;;;;7.03;3.63;;;;;;;;;;5061273;28;20099;-86
2023/09/25 22:02:24;;;;;;;7.03;4.57;;;;;;;;;;5085920;28;20079;-86
2023/09/25 22:04:50;;;;;;;10.48;4.90;;;;;;;;;;5063168;28;20052;-87
2023/09/25 22:07:17;;;;;;;5.10;3.60;;;;;;;;;;5087980;28;20052;-86
2023/09/25 22:09:44;;;;;;;6.10;3.85;;;;;;;;;;5088300;28;20044;-86
2023/09/25 22:12:17;;;;;;;8.73;4.00;;;;;;;;;;5063339;28;20098;-87
2023/09/25 22:14:50;;;;;;;7.18;4.63;;;;;;;;;;5064701;28;20048;-86
2023/09/25 22:17:20;;;;;;;8.10;4.45;;;;;;;;;;5062432;28;20263;-86
2023/09/25 22:19:48;;;;;;;6.47;4.55;;;;;;;;;;5062934;28;20048;-85
2023/09/25 22:22:22;;;;;;;9.95;4.13;;;;;;;;;;5064110;28;20056;-85
2023/09/25 22:24:54;;;;;;;7.13;5.05;;;;;;;;;;5063584;28;20087;-87
2023/09/25 22:27:22;;;;;;;6.07;4.28;;;;;;;;;;5079229;28;20400;-87
2023/09/25 22:29:49;;;;;;;10.57;4.38;;;;;;;;;;5061289;28;20071;-87
2023/09/25 22:32:16;;;;;;;8.20;5.15;;;;;;;;;;5066036;28;20044;-86
2023/09/25 22:34:44;;;;;;;9.32;4.32;;;;;;;;;;5064833;28;20053;-86
2023/09/25 22:37:14;;;;;;;8.70;4.30;;;;;;;;;;5063253;28;20102;-87
2023/09/25 22:39:43;;;;;;;7.35;5.00;;;;;;;;;;5066127;28;20052;-86
2023/09/25 22:42:19;;;;;;;;;;;;;;;;;;5064653;28;20057;-86
2023/09/25 22:44:46;;;;;;;9.07;4.45;;;;;;;;;;5062923;28;19927;-86
2023/09/25 22:47:16;;;;;;;7.78;4.00;;;;;;;;;;5062719;28;20052;-86
2023/09/25 22:49:44;;;;;;;8.88;4.40;;;;;;;;;;5062546;28;20056;-86
2023/09/25 22:52:12;;;;;;;9.93;4.88;;;;;;;;;;5061959;28;20299;-86
2023/09/25 22:54:42;;;;;;;8.85;4.18;;;;;;;;;;5079625;28;20048;-86
2023/09/25 22:57:09;;;;;;;6.30;4.03;;;;;;;;;;5080551;28;20048;-87
2023/09/25 22:59:40;;;;;;;6.47;3.97;;;;;;;;;;5062753;28;20300;-87
2023/09/25 23:02:19;;;;;;;7.88;4.78;;;;;;;;;;5080231;28;20229;-86
2023/09/25 23:04:49;;;;;;;9.13;3.65;;;;;;;;;;5082951;28;20048;-86
2023/09/25 23:07:24;;;;;;;8.68;3.55;;;;;;;;;;5065944;28;20055;-86
2023/09/25 23:09:53;;;;;;;5.75;4.03;;;;;;;;;;5064315;28;20080;-87
2023/09/25 23:12:21;;;;;;;6.93;3.70;;;;;;;;;;5062611;28;20048;-87
2023/09/25 23:14:48;;;;;;;5.85;3.55;;;;;;;;;;5062728;28;20409;-86
2023/09/25 23:17:15;;;;;;;9.02;4.90;;;;;;;;;;5063198;28;20140;-86
2023/09/25 23:19:43;;;;;;;10.88;4.30;;;;;;;;;;5065309;28;20053;-86
2023/09/25 23:22:13;;;;;;;11.57;4.50;;;;;;;;;;5071491;28;20049;-86
2023/09/25 23:24:43;;;;;;;9.38;4.90;;;;;;;;;;5064447;28;20045;-86
2023/09/25 23:27:13;;;;;;;8.82;4.85;;;;;;;;;;5064809;28;20045;-87
2023/09/25 23:29:42;;;;;;;10.30;5.55;;;;;;;;;;5064842;28;20068;-86
2023/09/25 23:32:13;;;;;;;7.00;5.25;;;;;;;;;;5065271;28;20158;-87
2023/09/25 23:34:43;;;;;;;10.80;5.20;;;;;;;;;;5063612;28;20112;-85
2023/09/25 23:37:14;;;;;;;13.95;5.18;;;;;;;;;;5064404;28;20048;-85
2023/09/25 23:39:41;;;;;;;9.38;5.60;;;;;;;;;;5064125;28;20115;-86
2023/09/25 23:42:10;;;;;;;9.30;5.50;;;;;;;;;;5062736;28;20425;-87
2023/09/25 23:44:37;;;;;;;9.80;5.32;;;;;;;;;;5066814;28;20111;-87
2023/09/25 23:47:21;;;;;;;7.40;4.78;;;;;;;;;;5063381;28;20327;-87
2023/09/25 23:49:48;;;;;;;6.65;4.47;;;;;;;;;;5061885;28;20586;-87
2023/09/25 23:52:15;;;;;;;6.85;4.68;;;;;;;;;;5062743;28;20359;-87
2023/09/25 23:54:44;;;;;;;7.47;4.57;;;;;;;;;;5061764;28;20049;-87
2023/09/25 23:57:11;;;;;;;9.00;4.65;;;;;;;;;;5062590;28;20052;-87
2023/09/25 23:59:38;;;;;;;10.23;5.00;;;;;;;;;;5062492;28;20087;-87
